Flight Track Log - Related Links

Times and Time Zones

All times are in EST time to prevent confusion due to time zone crossing. See the SKW7367 flight status page for this flight to view local times or setup timezone preferences in your user account.

Time Position Orientation Groundspeed Altitude Reporting Facility
EST Latitude Longitude Course Direction KTS MPH feet Rate Location/Type
Wed 03:57:13 PM 42.2194 -83.3578 North 149 171 1,300  Level Cleveland Center
Wed 03:57:56 PM 42.2514 -83.3508 North 195 224 3,300 3,115 Climbing Cleveland Center
Wed 03:58:57 PM 42.3169 -83.3433 North 240 276 6,700 2,870 Climbing Cleveland Center
Wed 03:59:05 PM 42.3161 -83.3394 106° East 233 268 6,600 3,086 Descending Cleveland Center
Wed 04:00:07 PM 42.3831 -83.3372 North 239 275 10,300 3,000 Climbing Cleveland Center
Wed 04:01:09 PM 42.4550 -83.3428 357° North 257 296 12,800 2,304 Climbing Cleveland Center
Wed 04:02:12 PM 42.5469 -83.3478 358° North 277 319 15,100 1,056 Climbing Cleveland Center
Wed 04:03:14 PM 42.6297 -83.3511 358° North 294 338 15,000 -48 Descending Cleveland Center
Wed 04:04:16 PM 42.7083 -83.3544 358° North 287 330 15,000 48 Level Cleveland Center
Wed 04:05:18 PM 42.7800 -83.3578 358° North 262 302 15,100 48 Climbing Cleveland Center
Wed 04:06:20 PM 42.8528 -83.3617 358° North 262 302 15,100  Level Cleveland Center
Wed 04:07:22 PM 42.9269 -83.3664 357° North 266 306 15,100  Level Cleveland Center
Wed 04:08:24 PM 43.0153 -83.3661 360° North 266 306 15,100  Level Cleveland Center
Wed 04:09:26 PM 43.0878 -83.3689 358° North 263 303 15,100  Level Cleveland Center
Wed 04:10:28 PM 43.1333 -83.4506 307° West 261 300 15,100  Level Cleveland Center
Wed 04:11:30 PM 43.1808 -83.5261 311° West 264 304 15,100  Level Cleveland Center
Wed 04:12:32 PM 43.2275 -83.6000 311° West 260 299 15,100  Level Cleveland Center
Wed 04:13:35 PM 43.2858 -83.6908 311° West 262 302 15,100  Level Cleveland Center
Wed 04:14:37 PM 43.3344 -83.7642 312° West 262 302 15,100  Level Cleveland Center
Wed 04:15:39 PM 43.3811 -83.8392 311° West 259 298 15,100  Level Cleveland Center
Wed 04:16:26 PM 43.4211 -83.9036 311° West 263 303 15,100 -55 Level Minneapolis Center
Wed 04:17:28 PM 43.4689 -83.9789 311° West 262 302 15,000 -48 Descending Minneapolis Center
Wed 04:18:30 PM 43.5172 -84.0536 312° West 262 302 15,000  Level Minneapolis Center
Wed 04:19:32 PM 43.5881 -84.0592 357° North 267 307 15,000  Level Minneapolis Center
Wed 04:20:34 PM 43.6611 -84.0336 14° North 271 312 15,000  Level Minneapolis Center
Wed 04:21:36 PM 43.7486 -84.0039 14° North 272 313 15,000 -677 Level Minneapolis Center
Wed 04:22:38 PM 43.8194 -83.9681 20° North 273 314 13,600 -1,065 Descending Minneapolis Center
Wed 04:23:40 PM 43.8794 -83.9394 19° North 248 285 12,800 -774 Descending Minneapolis Center
Wed 04:24:42 PM 43.9325 -83.9167 17° North 214 246 12,000 -823 Descending Minneapolis Center
Wed 04:25:44 PM 43.9917 -83.8906 18° North 204 235 11,100 -480 Descending Minneapolis Center
Wed 04:26:47 PM 44.0531 -83.8633 18° North 214 246 11,000 -48 Descending Minneapolis Center
Wed 04:27:49 PM 44.1108 -83.8386 17° North 220 253 11,000  Level Minneapolis Center
Wed 04:28:51 PM 44.1703 -83.8131 17° North 211 243 11,000 -290 Level Minneapolis Center
Wed 04:29:53 PM 44.2228 -83.7911 17° North 200 230 10,400 -968 Descending Minneapolis Center
Wed 04:30:55 PM 44.2778 -83.7681 17° North 194 223 9,000 -1,016 Descending Minneapolis Center
Wed 04:31:57 PM 44.3261 -83.7483 16° North 185 213 8,300 -677 Descending Minneapolis Center
Wed 04:32:59 PM 44.3786 -83.7303 14° North 182 209 7,600 -677 Descending Minneapolis Center
Wed 04:34:01 PM 44.4253 -83.7156 13° North 175 201 6,900 -629 Descending Minneapolis Center
Wed 04:35:03 PM 44.4750 -83.6964 15° North 172 198 6,300 -484 Descending Minneapolis Center
Wed 04:36:05 PM 44.5178 -83.6778 17° North 166 191 5,900 -435 Descending Minneapolis Center
Wed 04:37:07 PM 44.5661 -83.6564 17° North 169 194 5,400 -629 Descending Minneapolis Center
Wed 04:38:09 PM 44.6128 -83.6378 16° North 173 199 4,600 -629 Descending Minneapolis Center
Wed 04:39:11 PM 44.6650 -83.6161 16° North 181 208 4,100 -484 Descending Minneapolis Center
Wed 04:40:13 PM 44.7100 -83.5975 16° North 163 188 3,600 -387 Descending Minneapolis Center
Wed 04:41:15 PM 44.7497 -83.5789 18° North 155 178 3,300 -145 Descending Minneapolis Center
Wed 04:42:17 PM 44.7925 -83.5603 17° North 151 174 3,300 -145 Level Minneapolis Center
Wed 04:43:19 PM 44.8325 -83.5600 360° North 147 169 3,000 -242 Descending Minneapolis Center
Wed 04:44:21 PM 44.8814 -83.5608 359° North 158 182 2,800 -97 Descending Minneapolis Center
Wed 04:45:23 PM 44.9250 -83.5606 360° North 160 184 2,800  Level Minneapolis Center
Wed 04:46:25 PM 44.9642 -83.5608 360° North 141 162 2,800 -290 Level Minneapolis Center
Wed 04:47:27 PM 44.9958 -83.5608 360° North 124 143 2,200 -624 Descending Minneapolis Center
Wed 04:48:30 PM 45.0286 -83.5611 360° North 113 130 1,500 -672 Descending Minneapolis Center
Wed 04:49:32 PM 45.0611 -83.5611 360° North 117 135 800 -387 Descending Minneapolis Center
Wed 04:50:34 PM 45.0964 -83.5614 360° North 119 137 700 -97 Descending Minneapolis Center

Login

Don't have an account? Register now (free) for customized features, flight alerts, and more!